Time;durP1;ratioP1;P1;durP2;ratioP2;P2;SDS_P1;SDS_P2;PMS_P1;PMS_P2;Temp;Humidity;BMP_temperature;BMP_pressure;BME280_temperature;BME280_humidity;BME280_pressure;Samples;Min_cycle;Max_cycle;Signal;HPM_P1;HPM_P2
2022/03/25 00:00:48;;;;;;;13.70;11.03;;;14.30;65.30;;;;;;5052063;28;20438;-47
2022/03/25 00:03:16;;;;;;;14.80;11.63;;;14.30;65.20;;;;;;5034754;28;20466;-46
2022/03/25 00:05:45;;;;;;;12.93;11.17;;;14.30;65.50;;;;;;5071370;28;20434;-46
2022/03/25 00:08:14;;;;;;;13.53;11.63;;;14.30;65.40;;;;;;5072630;28;20461;-49
2022/03/25 00:10:42;;;;;;;14.83;13.10;;;14.30;65.30;;;;;;5053540;28;20438;-47
2022/03/25 00:13:11;;;;;;;13.47;10.50;;;14.30;65.30;;;;;;5034351;28;20455;-47
2022/03/25 00:15:39;;;;;;;13.37;10.93;;;14.30;65.50;;;;;;5054094;28;20821;-47
2022/03/25 00:18:07;;;;;;;11.30;10.20;;;14.30;65.60;;;;;;5068086;28;20933;-48
2022/03/25 00:20:36;;;;;;;13.47;8.67;;;14.30;65.60;;;;;;5071146;28;20893;-49
2022/03/25 00:23:05;;;;;;;11.60;10.33;;;14.30;65.50;;;;;;5070433;28;20556;-48
2022/03/25 00:25:35;;;;;;;12.80;11.43;;;14.30;65.90;;;;;;5070963;28;20427;-47
2022/03/25 00:28:03;;;;;;;10.80;9.73;;;14.30;65.90;;;;;;5070384;28;20454;-46
2022/03/25 00:30:32;;;;;;;15.53;12.07;;;14.30;66.00;;;;;;5055784;28;20426;-47
2022/03/25 00:33:01;;;;;;;15.80;11.57;;;14.30;65.50;;;;;;5051697;28;20470;-46
2022/03/25 00:35:29;;;;;;;11.57;10.47;;;14.30;65.20;;;;;;5070500;28;20641;-48
2022/03/25 00:37:58;;;;;;;16.00;10.33;;;14.30;65.70;;;;;;5070382;28;20495;-47
2022/03/25 00:40:26;;;;;;;10.33;9.30;;;14.30;65.80;;;;;;5037164;28;20897;-47
2022/03/25 00:42:55;;;;;;;12.30;10.30;;;14.30;66.00;;;;;;5065097;28;20447;-47
2022/03/25 00:45:24;;;;;;;13.13;10.80;;;14.30;66.50;;;;;;5066263;28;20453;-49
2022/03/25 00:47:52;;;;;;;11.60;9.23;;;14.30;66.10;;;;;;5051078;28;20465;-49
2022/03/25 00:50:21;;;;;;;9.47;8.47;;;14.30;66.70;;;;;;5053132;28;20844;-47
2022/03/25 00:52:50;;;;;;;12.27;8.93;;;14.30;66.70;;;;;;5052919;28;20993;-46
2022/03/25 00:55:19;;;;;;;12.00;10.80;;;14.30;66.60;;;;;;5069153;28;20458;-48
2022/03/25 00:57:48;;;;;;;12.90;10.67;;;14.20;66.30;;;;;;5064143;28;20443;-47
2022/03/25 01:00:17;;;;;;;10.23;9.10;;;14.20;66.20;;;;;;5036828;28;20474;-49
2022/03/25 01:02:46;;;;;;;12.57;10.50;;;14.20;66.30;;;;;;5070518;28;20867;-51
2022/03/25 01:05:15;;;;;;;12.20;11.00;;;14.20;66.30;;;;;;5051299;28;20466;-48
2022/03/25 01:07:43;;;;;;;15.60;11.80;;;14.20;66.40;;;;;;5060366;28;20538;-48
2022/03/25 01:10:13;;;;;;;10.43;8.80;;;14.20;66.40;;;;;;5052297;28;20477;-47
2022/03/25 01:12:41;;;;;;;9.23;8.27;;;14.20;66.70;;;;;;5071629;28;20528;-49
2022/03/25 01:15:10;;;;;;;10.13;9.00;;;14.20;67.10;;;;;;5068560;28;20481;-48
2022/03/25 01:17:43;;;;;;;12.63;10.20;;;14.20;67.00;;;;;;5069363;28;20449;-49
2022/03/25 01:20:13;;;;;;;9.50;8.50;;;14.20;67.00;;;;;;5032399;28;20470;-47
2022/03/25 01:22:42;;;;;;;14.43;10.43;;;14.20;67.00;;;;;;5053310;28;20966;-45
2022/03/25 01:25:10;;;;;;;12.07;9.77;;;14.20;67.00;;;;;;5032389;28;20466;-48
2022/03/25 01:27:40;;;;;;;14.30;11.13;;;14.20;66.80;;;;;;5050525;28;20451;-50
2022/03/25 01:30:09;;;;;;;16.83;11.77;;;14.20;66.70;;;;;;5049681;28;20481;-46
2022/03/25 01:32:38;;;;;;;10.90;8.17;;;14.20;66.70;;;;;;5066526;28;20465;-48
2022/03/25 01:35:09;;;;;;;10.40;9.40;;;14.10;66.70;;;;;;5059698;28;20478;-47
2022/03/25 01:37:37;;;;;;;9.50;8.60;;;14.20;66.80;;;;;;5049225;28;20478;-47
2022/03/25 01:40:09;;;;;;;11.53;9.47;;;14.20;66.90;;;;;;5053789;28;20478;-48
2022/03/25 01:42:41;;;;;;;10.87;9.70;;;14.20;66.80;;;;;;5056358;28;20462;-46
2022/03/25 01:45:12;;;;;;;12.27;10.97;;;14.10;66.50;;;;;;5069115;28;20845;-49
2022/03/25 01:47:43;;;;;;;11.80;10.10;;;14.20;66.50;;;;;;5056283;28;20806;-46
2022/03/25 01:50:21;;;;;;;13.40;10.73;;;14.20;66.30;;;;;;5049542;28;20818;-48
2022/03/25 01:52:52;;;;;;;13.13;11.20;;;14.20;66.30;;;;;;5068795;28;20556;-50
2022/03/25 01:55:24;;;;;;;12.93;10.83;;;14.20;66.10;;;;;;5034063;28;20489;-48
2022/03/25 01:57:56;;;;;;;14.40;11.10;;;14.10;66.00;;;;;;5050147;28;20505;-47
2022/03/25 02:00:27;;;;;;;13.77;9.87;;;14.10;66.00;;;;;;5034254;28;20458;-50
2022/03/25 02:02:56;;;;;;;11.43;9.73;;;14.10;66.20;;;;;;5069606;28;20973;-45
2022/03/25 02:05:26;;;;;;;14.33;11.40;;;14.10;66.30;;;;;;5068327;28;20434;-48
2022/03/25 02:07:55;;;;;;;13.40;10.97;;;14.10;66.00;;;;;;5068910;28;20472;-46
2022/03/25 02:10:24;;;;;;;10.80;9.70;;;14.10;66.20;;;;;;5052354;28;20570;-48
2022/03/25 02:12:52;;;;;;;11.27;10.10;;;14.10;66.40;;;;;;5069409;28;20526;-48
2022/03/25 02:15:32;;;;;;;9.47;8.57;;;14.10;66.50;;;;;;5051221;28;20449;-49
2022/03/25 02:18:10;;;;;;;10.87;8.60;;;14.10;66.60;;;;;;5033439;28;20449;-48
2022/03/25 02:20:40;;;;;;;12.00;10.73;;;14.10;67.00;;;;;;5049892;28;20459;-48
2022/03/25 02:23:13;;;;;;;12.97;11.23;;;14.10;66.50;;;;;;5046472;28;21048;-48
2022/03/25 02:25:42;;;;;;;9.50;8.20;;;14.10;66.50;;;;;;5050571;28;20448;-46
2022/03/25 02:28:11;;;;;;;16.20;11.93;;;14.10;66.70;;;;;;5032025;28;20481;-47
2022/03/25 02:30:43;;;;;;;12.73;10.10;;;14.10;66.60;;;;;;5031451;28;20502;-50
2022/03/25 02:33:14;;;;;;;10.53;9.20;;;14.10;66.80;;;;;;5031008;28;20469;-48
2022/03/25 02:35:44;;;;;;;13.20;11.03;;;14.10;66.80;;;;;;5069847;28;20768;-49
2022/03/25 02:38:16;;;;;;;15.40;11.80;;;14.10;66.90;;;;;;5059980;28;20544;-49
2022/03/25 02:40:45;;;;;;;12.23;10.93;;;14.10;66.60;;;;;;5032451;28;20431;-49
2022/03/25 02:43:14;;;;;;;12.07;9.90;;;14.10;66.60;;;;;;5065477;28;20874;-49
2022/03/25 02:45:46;;;;;;;10.83;9.40;;;14.00;66.70;;;;;;5045520;28;20470;-46
2022/03/25 02:48:14;;;;;;;13.13;11.50;;;14.00;66.60;;;;;;5037702;28;20484;-46
2022/03/25 02:50:46;;;;;;;12.07;10.77;;;14.00;66.50;;;;;;5051551;28;20465;-49
2022/03/25 02:53:16;;;;;;;13.37;9.57;;;14.00;66.40;;;;;;5053050;28;20462;-48
2022/03/25 02:55:44;;;;;;;11.03;9.93;;;14.00;67.40;;;;;;5049527;28;20818;-48
2022/03/25 02:58:12;;;;;;;14.60;12.17;;;14.00;66.80;;;;;;5049078;28;20457;-47
2022/03/25 03:00:42;;;;;;;15.60;13.00;;;14.00;66.60;;;;;;5062837;28;20470;-47
2022/03/25 03:03:10;;;;;;;13.60;11.33;;;14.00;66.50;;;;;;5069916;28;21077;-47
2022/03/25 03:05:39;;;;;;;14.20;10.80;;;14.00;66.40;;;;;;5050314;28;20492;-47
2022/03/25 03:08:07;;;;;;;12.47;11.20;;;14.00;66.50;;;;;;5062474;28;20442;-48
2022/03/25 03:10:37;;;;;;;12.43;11.10;;;14.00;66.50;;;;;;5049178;28;20493;-48
2022/03/25 03:13:05;;;;;;;11.70;10.30;;;14.00;68.00;;;;;;5048892;28;21191;-47
2022/03/25 03:15:34;;;;;;;16.90;11.03;;;14.00;66.60;;;;;;5067924;28;20443;-47
2022/03/25 03:18:03;;;;;;;12.30;11.00;;;14.00;66.50;;;;;;5053308;28;20422;-47
2022/03/25 03:20:31;;;;;;;12.20;11.00;;;14.00;66.50;;;;;;5053317;28;20462;-47
2022/03/25 03:23:00;;;;;;;12.23;11.03;;;14.00;66.50;;;;;;5070956;28;20476;-50
2022/03/25 03:25:28;;;;;;;11.93;10.17;;;14.00;66.50;;;;;;5072147;28;20809;-47
2022/03/25 03:27:58;;;;;;;11.83;9.67;;;13.90;66.50;;;;;;5072592;28;20475;-46
2022/03/25 03:30:26;;;;;;;11.20;10.00;;;13.90;66.50;;;;;;5072676;28;21023;-48
2022/03/25 03:32:57;;;;;;;16.40;12.03;;;13.90;66.30;;;;;;5071391;28;20556;-49
2022/03/25 03:35:26;;;;;;;13.87;12.57;;;13.90;66.30;;;;;;5072332;28;20467;-46
2022/03/25 03:37:55;;;;;;;10.90;9.63;;;13.90;66.30;;;;;;5070917;28;20429;-47
2022/03/25 03:40:23;;;;;;;13.33;11.33;;;13.90;66.60;;;;;;5072765;28;20432;-47
2022/03/25 03:42:52;;;;;;;11.97;10.73;;;13.90;66.30;;;;;;5067243;28;20477;-47
2022/03/25 03:45:22;;;;;;;11.33;9.93;;;13.90;66.30;;;;;;5072385;28;20455;-47
2022/03/25 03:47:50;;;;;;;12.63;10.37;;;13.90;66.50;;;;;;5072042;28;20457;-47
2022/03/25 03:50:19;;;;;;;12.07;10.07;;;13.90;66.40;;;;;;5071931;28;20473;-49
2022/03/25 03:52:47;;;;;;;14.33;10.90;;;13.90;66.50;;;;;;5071044;28;20473;-47
2022/03/25 03:55:15;;;;;;;12.23;10.93;;;13.80;66.30;;;;;;5053630;28;20475;-48
2022/03/25 03:57:43;;;;;;;11.13;9.60;;;13.90;66.40;;;;;;5056843;28;20455;-45
2022/03/25 04:00:14;;;;;;;10.20;9.23;;;13.90;66.60;;;;;;5070807;28;20492;-48
2022/03/25 04:02:45;;;;;;;10.23;9.13;;;13.90;66.50;;;;;;5068322;28;20473;-49
2022/03/25 04:05:14;;;;;;;11.67;10.50;;;13.90;66.60;;;;;;5059313;28;20471;-47
2022/03/25 04:07:44;;;;;;;11.47;10.23;;;13.90;66.60;;;;;;5061050;28;20998;-47
2022/03/25 04:10:13;;;;;;;11.13;9.93;;;13.80;66.70;;;;;;5051443;28;20898;-46
2022/03/25 04:12:42;;;;;;;12.33;9.53;;;13.80;66.60;;;;;;5052999;28;20458;-46
2022/03/25 04:15:12;;;;;;;11.60;10.20;;;13.80;66.50;;;;;;5066444;28;20519;-47
2022/03/25 04:17:44;;;;;;;11.17;9.33;;;13.80;66.60;;;;;;5066890;28;20965;-46
2022/03/25 04:20:15;;;;;;;11.53;10.33;;;13.80;66.60;;;;;;5056407;28;21023;-47
2022/03/25 04:22:43;;;;;;;13.70;11.03;;;13.80;68.30;;;;;;5062076;28;20470;-49
2022/03/25 04:25:11;;;;;;;10.13;8.90;;;13.80;66.80;;;;;;5056691;28;20475;-47
2022/03/25 04:27:50;;;;;;;11.40;9.03;;;13.80;66.80;;;;;;5052725;28;20434;-49
2022/03/25 04:30:20;;;;;;;12.33;9.77;;;13.80;67.20;;;;;;5055369;28;20483;-48
2022/03/25 04:32:50;;;;;;;10.90;9.07;;;13.80;67.00;;;;;;5065325;28;20502;-48
2022/03/25 04:35:19;;;;;;;11.03;9.93;;;13.80;67.20;;;;;;5069520;28;20464;-46
2022/03/25 04:37:48;;;;;;;10.53;9.40;;;13.80;67.30;;;;;;5071391;28;20441;-49
2022/03/25 04:40:18;;;;;;;10.20;9.10;;;13.80;67.10;;;;;;5051432;28;20472;-48
2022/03/25 04:42:47;;;;;;;14.30;11.40;;;13.80;67.00;;;;;;5067586;28;20444;-48
2022/03/25 04:45:15;;;;;;;13.67;9.97;;;13.80;66.80;;;;;;5056027;28;21035;-47
2022/03/25 04:47:44;;;;;;;12.07;9.60;;;13.80;67.00;;;;;;5052046;28;20430;-48
2022/03/25 04:50:14;;;;;;;10.27;9.27;;;13.70;67.00;;;;;;5050714;28;20479;-48
2022/03/25 04:52:42;;;;;;;9.93;8.97;;;13.70;66.80;;;;;;5060711;28;20875;-46
2022/03/25 04:55:16;;;;;;;10.47;9.37;;;13.70;66.90;;;;;;5055455;28;20535;-49
2022/03/25 04:57:44;;;;;;;11.60;9.63;;;13.70;67.20;;;;;;5050772;28;20434;-48
2022/03/25 05:00:13;;;;;;;10.70;9.60;;;13.70;67.30;;;;;;5054979;28;20521;-46
2022/03/25 05:02:43;;;;;;;13.47;9.67;;;13.70;67.60;;;;;;5061277;28;20545;-48
2022/03/25 05:05:13;;;;;;;10.60;9.50;;;13.70;67.20;;;;;;5050742;28;20979;-48
2022/03/25 05:07:43;;;;;;;14.53;11.17;;;13.70;67.00;;;;;;5060663;28;20856;-48
2022/03/25 05:10:13;;;;;;;11.90;10.80;;;13.70;67.10;;;;;;5057949;28;20499;-47
2022/03/25 05:12:43;;;;;;;13.63;11.57;;;13.70;67.00;;;;;;5050433;28;20462;-47
2022/03/25 05:15:12;;;;;;;12.60;10.37;;;13.60;67.00;;;;;;5032284;28;20475;-48
2022/03/25 05:17:46;;;;;;;13.80;10.30;;;13.70;67.00;;;;;;5059404;28;20979;-48
2022/03/25 05:20:17;;;;;;;13.43;11.13;;;13.60;67.00;;;;;;5070295;28;20485;-49
2022/03/25 05:22:46;;;;;;;11.80;10.60;;;13.60;66.80;;;;;;5069187;28;20469;-47
2022/03/25 05:25:15;;;;;;;11.93;10.73;;;13.60;67.00;;;;;;5054939;28;20473;-47
2022/03/25 05:27:46;;;;;;;11.37;9.37;;;13.60;67.10;;;;;;5050761;28;20770;-48
2022/03/25 05:30:15;;;;;;;11.20;10.10;;;13.60;67.10;;;;;;5055716;28;20502;-49
2022/03/25 05:32:43;;;;;;;10.13;9.17;;;13.60;67.20;;;;;;5049922;28;20441;-47
2022/03/25 05:35:19;;;;;;;9.40;8.40;;;13.60;67.30;;;;;;5064152;28;20953;-49
2022/03/25 05:37:47;;;;;;;9.60;8.50;;;13.60;67.60;;;;;;5061059;28;20443;-48
2022/03/25 05:40:17;;;;;;;12.20;10.90;;;13.60;67.70;;;;;;5069656;28;20468;-47
2022/03/25 05:42:47;;;;;;;11.80;9.80;;;13.60;67.60;;;;;;5067321;28;20448;-49
2022/03/25 05:45:15;;;;;;;12.73;9.47;;;13.60;67.70;;;;;;5069909;28;20537;-48
2022/03/25 05:47:46;;;;;;;11.10;9.07;;;13.60;67.60;;;;;;5069192;28;20444;-49
2022/03/25 05:50:14;;;;;;;12.70;9.50;;;13.60;67.80;;;;;;5069374;28;20889;-48
2022/03/25 05:52:44;;;;;;;10.80;8.10;;;13.60;67.90;;;;;;5068850;28;20650;-48
2022/03/25 05:55:13;;;;;;;10.63;9.23;;;13.60;67.90;;;;;;5069584;28;20464;-47
2022/03/25 05:57:42;;;;;;;11.67;10.47;;;13.50;68.00;;;;;;5070401;28;20501;-50
2022/03/25 06:00:11;;;;;;;12.33;11.03;;;13.50;67.90;;;;;;5052088;28;21077;-47
2022/03/25 06:02:43;;;;;;;11.73;10.33;;;13.50;67.60;;;;;;5060541;28;20456;-47
2022/03/25 06:05:12;;;;;;;12.93;10.13;;;13.50;67.60;;;;;;5048849;28;20477;-48
2022/03/25 06:07:42;;;;;;;12.27;10.70;;;13.50;67.70;;;;;;5059365;28;20444;-49
2022/03/25 06:10:13;;;;;;;13.70;10.30;;;13.50;67.70;;;;;;5068990;28;20863;-47
2022/03/25 06:12:42;;;;;;;12.60;10.00;;;13.50;67.80;;;;;;5055841;28;20508;-49
2022/03/25 06:15:11;;;;;;;12.87;10.80;;;13.50;67.70;;;;;;5057060;28;20560;-48
2022/03/25 06:17:44;;;;;;;10.40;9.30;;;13.50;67.70;;;;;;5070346;28;20477;-49
2022/03/25 06:20:13;;;;;;;10.70;9.60;;;13.50;67.80;;;;;;5051063;28;20464;-49
2022/03/25 06:22:42;;;;;;;12.87;11.57;;;13.50;67.70;;;;;;5059719;28;20456;-49
2022/03/25 06:25:13;;;;;;;15.67;12.60;;;13.50;67.50;;;;;;5050801;28;20465;-47
2022/03/25 06:27:51;;;;;;;10.90;9.57;;;13.50;67.50;;;;;;5050442;28;20838;-52
2022/03/25 06:30:21;;;;;;;12.90;11.50;;;13.50;67.80;;;;;;5051391;28;20471;-49
2022/03/25 06:32:49;;;;;;;13.00;9.63;;;13.40;67.30;;;;;;5063335;28;20460;-46
2022/03/25 06:35:18;;;;;;;11.83;10.60;;;13.40;67.80;;;;;;5056045;28;20847;-47
2022/03/25 06:37:46;;;;;;;11.20;9.73;;;13.50;67.50;;;;;;5061766;28;20570;-47
2022/03/25 06:40:16;;;;;;;12.87;11.40;;;13.40;67.50;;;;;;5064908;28;20478;-48
2022/03/25 06:42:45;;;;;;;11.47;9.27;;;13.50;67.30;;;;;;5057916;28;20453;-50
2022/03/25 06:45:15;;;;;;;11.27;10.17;;;13.40;67.50;;;;;;5068786;28;20462;-45
2022/03/25 06:47:43;;;;;;;12.40;10.97;;;13.40;67.50;;;;;;5049961;28;20443;-48
2022/03/25 06:50:15;;;;;;;13.33;11.27;;;13.40;67.30;;;;;;5055774;28;20542;-47
2022/03/25 06:52:45;;;;;;;11.90;10.70;;;13.40;67.20;;;;;;5056597;28;20499;-48
2022/03/25 06:55:16;;;;;;;12.90;10.43;;;13.40;67.30;;;;;;5050302;28;20525;-48
2022/03/25 06:57:49;;;;;;;13.47;10.30;;;13.50;67.40;;;;;;5053578;28;20452;-47
2022/03/25 07:00:21;;;;;;;16.33;12.17;;;13.50;67.30;;;;;;5067867;28;21002;-48
2022/03/25 07:02:50;;;;;;;11.33;9.50;;;13.40;67.20;;;;;;5069695;28;20978;-49
2022/03/25 07:05:19;;;;;;;12.00;10.37;;;13.50;67.40;;;;;;5068684;28;20458;-49
2022/03/25 07:07:48;;;;;;;15.23;10.90;;;13.50;67.50;;;;;;5043776;28;20484;-46
2022/03/25 07:10:22;;;;;;;9.93;8.93;;;13.40;67.70;;;;;;5071221;28;20850;-46
2022/03/25 07:12:52;;;;;;;12.60;10.30;;;13.50;67.80;;;;;;5071381;28;21006;-50
2022/03/25 07:15:20;;;;;;;12.87;10.20;;;13.50;68.00;;;;;;5056250;28;20971;-48
2022/03/25 07:17:50;;;;;;;18.00;11.63;;;13.50;67.90;;;;;;5072783;28;20442;-50
2022/03/25 07:20:19;;;;;;;12.50;9.87;;;13.50;67.90;;;;;;5053177;28;20458;-48
2022/03/25 07:22:49;;;;;;;12.13;9.03;;;13.50;68.00;;;;;;5059541;28;20467;-47
2022/03/25 07:25:20;;;;;;;9.03;8.13;;;13.50;68.00;;;;;;5036338;28;20456;-47
2022/03/25 07:27:48;;;;;;;9.57;8.67;;;13.40;67.90;;;;;;5052857;28;20445;-48
2022/03/25 07:30:18;;;;;;;8.17;7.37;;;13.50;68.10;;;;;;5055977;28;20487;-48
2022/03/25 07:32:47;;;;;;;7.17;6.47;;;13.40;68.10;;;;;;5072237;28;20509;-49
2022/03/25 07:35:16;;;;;;;8.17;7.37;;;13.40;68.20;;;;;;5072027;28;20456;-47
2022/03/25 07:37:45;;;;;;;8.63;6.87;;;13.50;68.30;;;;;;5067069;28;20480;-48
2022/03/25 07:40:14;;;;;;;8.53;7.70;;;13.50;68.40;;;;;;5052672;28;20464;-48
2022/03/25 07:42:45;;;;;;;7.80;7.00;;;13.50;68.30;;;;;;5048644;28;20661;-47
2022/03/25 07:45:15;;;;;;;7.97;7.27;;;13.40;68.40;;;;;;5057796;28;20505;-50
2022/03/25 07:47:44;;;;;;;8.60;7.50;;;13.50;68.50;;;;;;5067378;28;20839;-47
2022/03/25 07:50:14;;;;;;;7.90;6.80;;;13.50;68.60;;;;;;5060480;28;20474;-47
2022/03/25 07:52:43;;;;;;;7.50;6.80;;;13.40;68.60;;;;;;5058008;28;20568;-50
2022/03/25 07:55:11;;;;;;;8.00;7.20;;;13.50;68.70;;;;;;5070696;28;20464;-46
2022/03/25 07:57:40;;;;;;;6.60;5.93;;;13.50;68.80;;;;;;5070290;28;20437;-49
2022/03/25 08:00:12;;;;;;;8.17;7.37;;;13.50;68.90;;;;;;5061182;28;20479;-49
2022/03/25 08:02:40;;;;;;;7.20;6.40;;;13.50;68.90;;;;;;5070050;28;20467;-49
2022/03/25 08:05:11;;;;;;;7.67;6.70;;;13.50;69.00;;;;;;5054972;28;20460;-46
2022/03/25 08:07:44;;;;;;;7.57;6.83;;;13.50;69.00;;;;;;5069933;28;20874;-47
2022/03/25 08:10:13;;;;;;;7.47;6.70;;;13.50;69.00;;;;;;5071761;28;20463;-48
2022/03/25 08:12:42;;;;;;;8.33;6.87;;;13.50;69.00;;;;;;5071198;28;20832;-47
2022/03/25 08:15:12;;;;;;;7.20;6.50;;;13.50;68.90;;;;;;5062652;28;20498;-49
2022/03/25 08:17:48;;;;;;;8.17;7.33;;;13.50;69.00;;;;;;5052186;28;20445;-48
2022/03/25 08:20:21;;;;;;;9.27;7.23;;;13.50;69.00;;;;;;5051256;28;20821;-47
2022/03/25 08:22:49;;;;;;;9.87;8.77;;;13.50;68.90;;;;;;5062659;28;20471;-46
2022/03/25 08:28:04;;;;;;;10.27;7.70;;;13.50;69.10;;;;;;5051969;28;20484;-46
2022/03/25 08:30:34;;;;;;;7.50;6.80;;;13.50;68.90;;;;;;5052402;28;20424;-48
2022/03/25 08:33:04;;;;;;;7.73;6.87;;;13.50;69.10;;;;;;5052180;28;20537;-47
2022/03/25 08:35:36;;;;;;;7.97;7.00;;;13.50;69.00;;;;;;5051505;28;20417;-48
2022/03/25 08:38:05;;;;;;;7.53;6.73;;;13.50;69.10;;;;;;5059891;28;21001;-49
2022/03/25 08:40:34;;;;;;;8.10;6.77;;;13.50;69.00;;;;;;5071262;28;21236;-47
2022/03/25 08:43:18;;;;;;;10.70;7.20;;;13.50;69.10;;;;;;5069714;28;20999;-47
2022/03/25 08:45:48;;;;;;;8.47;7.57;;;13.50;69.10;;;;;;5070080;28;20469;-46
2022/03/25 08:48:16;;;;;;;8.20;7.40;;;13.50;69.00;;;;;;5068614;28;20465;-48
2022/03/25 08:50:44;;;;;;;7.23;6.63;;;13.50;69.20;;;;;;5050924;28;20987;-47
2022/03/25 08:53:12;;;;;;;9.43;8.43;;;13.50;69.20;;;;;;5050135;28;20464;-46
2022/03/25 08:55:41;;;;;;;18.60;13.17;;;13.50;69.00;;;;;;5057502;28;20453;-50
2022/03/25 08:58:09;;;;;;;15.00;9.33;;;13.60;67.00;;;;;;5057311;28;20439;-49
2022/03/25 09:00:37;;;;;;;8.80;7.70;;;13.60;67.90;;;;;;5070560;28;20488;-49
2022/03/25 09:03:07;;;;;;;11.90;8.93;;;13.60;68.20;;;;;;5071255;28;20536;-48
2022/03/25 09:05:37;;;;;;;8.80;8.00;;;13.60;68.20;;;;;;5064413;28;20442;-46
2022/03/25 09:08:06;;;;;;;9.40;8.40;;;13.60;68.40;;;;;;5063336;28;20460;-47
2022/03/25 09:10:37;;;;;;;9.40;8.40;;;13.50;68.30;;;;;;5065324;28;20445;-48
2022/03/25 09:13:05;;;;;;;8.77;7.90;;;13.50;68.40;;;;;;5050001;28;20469;-49
2022/03/25 09:15:35;;;;;;;10.70;8.30;;;13.50;68.60;;;;;;5054792;28;20443;-47
2022/03/25 09:18:03;;;;;;;8.63;7.73;;;13.50;68.60;;;;;;5070614;28;20835;-48
2022/03/25 09:20:36;;;;;;;11.23;9.63;;;13.50;68.70;;;;;;5070246;28;20433;-48
2022/03/25 09:23:04;;;;;;;10.70;8.87;;;13.50;68.70;;;;;;5067868;28;20874;-49
2022/03/25 09:25:33;;;;;;;9.40;8.40;;;13.50;68.60;;;;;;5066831;28;20451;-47
2022/03/25 09:28:01;;;;;;;9.93;8.23;;;13.50;68.80;;;;;;5049632;28;20487;-47
2022/03/25 09:30:29;;;;;;;9.83;7.70;;;13.50;68.80;;;;;;5050385;28;20527;-46
2022/03/25 09:33:07;;;;;;;9.30;8.40;;;13.50;68.90;;;;;;5067138;28;20472;-48
2022/03/25 09:35:40;;;;;;;10.40;9.07;;;13.50;68.90;;;;;;5047515;28;20490;-46
2022/03/25 09:38:09;;;;;;;9.57;8.57;;;13.50;68.90;;;;;;5062821;28;20477;-46
2022/03/25 09:40:38;;;;;;;10.30;8.70;;;13.40;68.90;;;;;;5054185;28;20519;-46
2022/03/25 09:43:06;;;;;;;11.30;9.87;;;13.40;68.80;;;;;;5049887;28;20630;-48
2022/03/25 09:45:36;;;;;;;9.47;8.17;;;13.40;68.90;;;;;;5050247;28;20964;-46
2022/03/25 09:48:05;;;;;;;9.07;8.17;;;13.50;69.10;;;;;;5050156;28;20445;-45
2022/03/25 09:50:37;;;;;;;14.00;9.00;;;13.50;69.00;;;;;;5050675;28;20431;-46
2022/03/25 09:53:08;;;;;;;9.67;8.67;;;13.50;69.10;;;;;;5061384;28;20841;-47
2022/03/25 09:55:40;;;;;;;8.60;7.50;;;13.50;69.10;;;;;;5068539;28;20519;-47
2022/03/25 09:58:10;;;;;;;9.00;8.10;;;13.50;69.20;;;;;;5064528;28;20531;-48
2022/03/25 10:00:39;;;;;;;10.00;8.43;;;13.50;69.10;;;;;;5056984;28;21079;-49
2022/03/25 10:03:08;;;;;;;9.23;8.27;;;13.50;69.10;;;;;;5067576;28;20444;-46
2022/03/25 10:05:55;;;;;;;11.07;9.60;;;13.50;69.10;;;;;;5069025;28;20487;-50
2022/03/25 10:08:46;;;;;;;12.77;9.40;;;13.50;68.70;;;;;;5059145;28;20559;-48
2022/03/25 10:11:25;;;;;;;11.50;9.70;;;13.50;69.40;;;;;;5050659;28;20435;-46
2022/03/25 10:14:14;;;;;;;10.57;9.07;;;13.40;68.80;;;;;;5049859;28;20469;-48
2022/03/25 10:16:45;;;;;;;9.77;8.30;;;13.50;68.90;;;;;;5055255;28;20807;-49
2022/03/25 10:19:17;;;;;;;10.67;8.90;;;13.50;68.90;;;;;;5049470;28;20457;-45
2022/03/25 10:21:53;;;;;;;12.00;9.70;;;13.50;69.10;;;;;;5051746;28;20429;-48
2022/03/25 10:24:39;;;;;;;11.10;8.60;;;13.50;69.10;;;;;;5069296;28;20464;-49
2022/03/25 10:27:17;;;;;;;12.03;8.67;;;13.40;69.00;;;;;;5070968;28;20421;-49
2022/03/25 10:29:47;;;;;;;9.93;8.90;;;13.40;69.10;;;;;;5074079;28;20459;-46
2022/03/25 10:32:18;;;;;;;10.33;9.23;;;13.50;69.20;;;;;;5073108;28;20452;-47
2022/03/25 10:35:00;;;;;;;13.83;9.90;;;13.40;69.20;;;;;;5052870;28;20491;-47
2022/03/25 10:37:29;;;;;;;8.90;8.00;;;13.40;69.10;;;;;;5061812;28;20792;-46
2022/03/25 10:39:59;;;;;;;9.27;8.37;;;13.40;69.30;;;;;;5054981;28;20567;-50
2022/03/25 10:42:27;;;;;;;9.10;8.20;;;13.40;69.20;;;;;;5054115;28;20434;-48
2022/03/25 10:44:59;;;;;;;10.10;8.53;;;13.40;69.20;;;;;;5039680;28;21006;-47
2022/03/25 10:47:28;;;;;;;10.23;8.30;;;13.40;69.20;;;;;;5061612;28;20424;-47
2022/03/25 10:50:13;;;;;;;8.77;7.97;;;13.40;69.20;;;;;;5071074;28;20478;-48
2022/03/25 10:52:42;;;;;;;9.30;8.40;;;13.40;69.30;;;;;;5072641;28;20463;-48
2022/03/25 10:55:24;;;;;;;9.30;7.80;;;13.40;69.20;;;;;;5054228;28;21052;-47
2022/03/25 10:57:55;;;;;;;7.80;7.00;;;13.40;69.40;;;;;;5060477;28;20440;-46
2022/03/25 11:00:25;;;;;;;9.93;7.43;;;13.40;69.30;;;;;;5058171;28;20516;-48
2022/03/25 11:02:54;;;;;;;8.30;7.23;;;13.40;69.20;;;;;;5059257;28;20571;-46
2022/03/25 11:05:23;;;;;;;10.60;8.73;;;13.40;69.30;;;;;;5053602;28;20920;-48
2022/03/25 11:07:51;;;;;;;8.43;7.60;;;13.40;69.40;;;;;;5063403;28;20501;-50
2022/03/25 11:10:21;;;;;;;8.10;7.30;;;13.40;69.40;;;;;;5052839;28;20456;-48
2022/03/25 11:12:51;;;;;;;10.80;8.20;;;13.40;69.40;;;;;;5053202;28;21021;-47
2022/03/25 11:15:21;;;;;;;10.73;9.00;;;13.40;69.40;;;;;;5052952;28;20577;-46
2022/03/25 11:17:49;;;;;;;8.90;7.70;;;13.40;69.30;;;;;;5057557;28;21042;-47
2022/03/25 11:20:21;;;;;;;8.20;7.40;;;13.40;69.40;;;;;;5052168;28;20464;-48
2022/03/25 11:23:01;;;;;;;9.97;7.67;;;13.40;69.40;;;;;;5062935;28;20468;-47
2022/03/25 11:25:34;;;;;;;10.93;9.10;;;13.40;69.40;;;;;;5073236;28;20856;-48
2022/03/25 11:28:12;;;;;;;12.03;9.07;;;13.40;69.50;;;;;;5057019;28;20781;-49
2022/03/25 11:30:40;;;;;;;11.03;8.47;;;13.40;69.40;;;;;;5070053;28;20479;-47
2022/03/25 11:33:10;;;;;;;9.43;8.17;;;13.40;69.40;;;;;;5040594;28;20473;-50
2022/03/25 11:35:39;;;;;;;10.40;8.40;;;13.40;69.40;;;;;;5054052;28;20464;-48
2022/03/25 11:38:18;;;;;;;8.23;7.07;;;13.40;68.90;;;;;;5071069;28;20955;-48
2022/03/25 11:40:49;;;;;;;8.93;8.03;;;13.40;69.30;;;;;;5071870;28;20464;-46
2022/03/25 11:43:18;;;;;;;7.70;7.00;;;13.40;69.40;;;;;;5063222;28;20468;-49
2022/03/25 11:46:02;;;;;;;9.20;7.63;;;13.40;69.40;;;;;;5056298;28;20444;-46
2022/03/25 11:48:45;;;;;;;8.67;7.70;;;13.40;69.20;;;;;;5071655;28;20470;-47
2022/03/25 11:51:36;;;;;;;8.27;7.47;;;13.40;69.40;;;;;;5070618;28;20498;-49
2022/03/25 11:54:36;;;;;;;8.33;6.70;;;13.40;69.30;;;;;;5059202;28;20476;-46
2022/03/25 11:57:08;;;;;;;10.87;6.80;;;13.40;69.50;;;;;;5071629;28;20514;-49
2022/03/25 11:59:49;;;;;;;9.03;6.87;;;13.40;69.40;;;;;;5051834;28;20473;-48
2022/03/25 12:02:24;;;;;;;7.67;6.70;;;13.50;69.60;;;;;;5052852;28;20452;-47
2022/03/25 12:04:53;;;;;;;8.10;7.30;;;13.50;69.80;;;;;;5064866;28;20471;-47
2022/03/25 12:07:21;;;;;;;7.97;6.87;;;13.50;69.80;;;;;;5063294;28;20498;-47
2022/03/25 12:09:49;;;;;;;9.13;7.83;;;13.40;69.60;;;;;;5072100;28;20531;-48
2022/03/25 12:12:19;;;;;;;7.90;7.13;;;13.50;69.60;;;;;;5071141;28;20420;-47
2022/03/25 12:15:07;;;;;;;8.27;7.40;;;13.40;69.50;;;;;;5069419;28;20476;-52
2022/03/25 12:17:35;;;;;;;9.10;7.13;;;13.50;69.70;;;;;;5052249;28;20879;-46
2022/03/25 12:20:05;;;;;;;10.03;7.43;;;13.50;69.60;;;;;;5056586;28;21069;-47
2022/03/25 12:22:40;;;;;;;7.93;7.03;;;13.50;69.70;;;;;;5068935;28;20994;-49
2022/03/25 12:25:21;;;;;;;8.60;6.87;;;13.50;69.80;;;;;;5065284;28;20459;-47
2022/03/25 12:27:53;;;;;;;7.53;6.83;;;13.50;69.60;;;;;;5051843;28;20436;-46
2022/03/25 12:30:21;;;;;;;10.73;7.47;;;13.50;69.70;;;;;;5051842;28;20459;-47
2022/03/25 12:32:52;;;;;;;7.90;7.07;;;13.50;69.10;;;;;;5052203;28;20842;-46
2022/03/25 12:35:26;;;;;;;9.50;7.63;;;13.50;68.80;;;;;;5056551;28;20499;-48
2022/03/25 12:38:12;;;;;;;9.90;6.57;;;13.50;68.90;;;;;;5067701;28;20781;-48
2022/03/25 12:40:41;;;;;;;7.37;6.00;;;13.50;68.80;;;;;;5052303;28;20452;-49
2022/03/25 12:43:11;;;;;;;8.60;6.80;;;13.50;68.90;;;;;;5067566;28;20465;-47
2022/03/25 12:45:41;;;;;;;7.43;6.53;;;13.50;68.90;;;;;;5068385;28;20432;-47
2022/03/25 12:48:11;;;;;;;6.83;6.07;;;13.50;68.70;;;;;;5064287;28;20518;-47
2022/03/25 12:50:43;;;;;;;7.60;5.83;;;13.50;68.90;;;;;;5068866;28;20513;-47
2022/03/25 12:53:12;;;;;;;8.80;6.93;;;13.50;68.90;;;;;;5061966;28;20461;-49
2022/03/25 12:55:41;;;;;;;6.10;5.50;;;13.50;69.20;;;;;;5051434;28;20461;-48